Time;durP1;ratioP1;P1;durP2;ratioP2;P2;SDS_P1;SDS_P2;PMS_P1;PMS_P2;Temp;Humidity;BMP_temperature;BMP_pressure;BME280_temperature;BME280_humidity;BME280_pressure;Samples;Min_cycle;Max_cycle;Signal;HPM_P1;HPM_P2
2023/07/11 00:00:56;;;;;;;;;;;;;;;13.42;77.53;98628.91;5052891;28;19925;-83
2023/07/11 00:03:23;;;;;;;;;;;;;;;13.40;77.43;98612.91;5051268;28;20476;-83
2023/07/11 00:06:04;;;;;;;;;;;;;;;13.39;77.67;98627.56;5053128;28;19978;-83
2023/07/11 00:08:32;;;;;;;;;;;;;;;13.41;77.53;98630.78;5051432;28;19963;-83
2023/07/11 00:10:59;;;;;;;;;;;;;;;13.39;77.57;98624.84;5053133;28;20034;-83
2023/07/11 00:13:26;;;;;;;;;;;;;;;13.42;77.63;98628.91;5052343;28;20066;-83
2023/07/11 00:15:56;;;;;;;;;;;;;;;13.42;77.59;98627.00;5052815;28;20389;-83
2023/07/11 00:18:23;;;;;;;;;;;;;;;13.42;77.61;98627.00;5051889;28;19971;-82
2023/07/11 00:20:50;;;;;;;;;;;;;;;13.47;77.37;98625.38;5053057;28;19929;-82
2023/07/11 00:23:17;;;;;;;;;;;;;;;13.46;77.23;98629.97;5052861;28;20679;-82
2023/07/11 00:25:43;;;;;;;;;;;;;;;13.50;77.10;98624.84;5052646;28;20395;-83
2023/07/11 00:28:11;;;;;;;;;;;;;;;13.48;76.97;98630.53;5052550;28;19931;-81
2023/07/11 00:30:41;;;;;;;;;;;;;;;13.48;77.03;98624.28;5032694;28;20291;-83
2023/07/11 00:33:09;;;;;;;;;;;;;;;13.49;77.05;98625.91;5031624;28;19924;-82
2023/07/11 00:35:39;;;;;;;;;;;;;;;13.42;76.86;98620.78;5032278;28;19972;-81
2023/07/11 00:38:07;;;;;;;;;;;;;;;13.40;76.91;98626.47;5032702;28;20027;-82
2023/07/11 00:40:45;;;;;;;;;;;;;;;13.44;76.97;98632.97;5029480;28;19971;-86
2023/07/11 00:43:16;;;;;;;;;;;;;;;13.43;77.01;98625.91;5043052;28;19924;-85
2023/07/11 00:45:49;;;;;;;;;;;;;;;13.44;77.05;98621.31;5041216;28;19968;-89
2023/07/11 00:48:18;;;;;;;;;;;;;;;13.41;76.93;98627.28;5042207;28;20392;-85
2023/07/11 00:50:45;;;;;;;;;;;;;;;13.42;76.95;98624.31;5041898;28;20020;-87
2023/07/11 00:53:11;;;;;;;;;;;;;;;13.42;77.03;98618.06;5041102;28;19925;-88
2023/07/11 00:55:39;;;;;;;;;;;;;;;13.43;76.94;98627.81;5040625;28;20302;-86
2023/07/11 00:58:06;;;;;;;;;;;;;;;13.42;76.89;98627.00;5050427;28;19929;-79
2023/07/11 01:00:33;;;;;;;;;;;;;;;13.43;76.85;98619.69;5015519;28;19971;-84
2023/07/11 01:03:02;;;;;;;;;;;;;;;13.41;76.79;98621.84;5032191;28;19925;-84
2023/07/11 01:05:29;;;;;;;;;;;;;;;13.42;76.76;98624.31;5031903;28;20357;-84
2023/07/11 01:07:56;;;;;;;;;;;;;;;13.42;76.72;98623.50;5032145;28;20376;-84
2023/07/11 01:10:23;;;;;;;;;;;;;;;13.40;76.88;98620.25;5033543;28;19925;-92
2023/07/11 01:12:49;;;;;;;;;;;;;;;13.40;76.75;98622.94;5048309;28;19956;-87
2023/07/11 01:15:18;;;;;;;;;;;;;;;13.41;76.62;98619.94;5046332;28;19990;-90
2023/07/11 01:17:45;;;;;;;;;;;;;;;13.42;76.56;98615.38;5052373;28;20255;-87
2023/07/11 01:20:22;;;;;;;;;;;;;;;13.39;76.50;98621.31;5045564;28;19925;-89
2023/07/11 01:22:52;;;;;;;;;;;;;;;13.35;76.52;98617.53;5044849;28;19934;-84
2023/07/11 01:25:19;;;;;;;;;;;;;;;13.35;76.52;98621.03;5052903;28;20349;-84
2023/07/11 01:27:46;;;;;;;;;;;;;;;13.36;76.40;98619.16;5050424;28;19951;-84
2023/07/11 01:30:14;;;;;;;;;;;;;;;13.37;76.49;98616.16;5046837;28;19936;-84
2023/07/11 01:32:41;;;;;;;;;;;;;;;13.37;76.32;98618.88;5031613;28;19929;-84
2023/07/11 01:35:09;;;;;;;;;;;;;;;13.37;76.04;98616.16;5046912;28;19925;-84
2023/07/11 01:37:35;;;;;;;;;;;;;;;13.39;76.08;98618.59;5031423;28;19925;-84
2023/07/11 01:40:05;;;;;;;;;;;;;;;13.39;75.84;98624.84;5048488;28;19968;-84
2023/07/11 01:42:32;;;;;;;;;;;;;;;13.38;75.78;98616.97;5031369;28;19924;-84
2023/07/11 01:44:59;;;;;;;;;;;;;;;13.35;75.57;98629.19;5044720;28;19924;-83
2023/07/11 01:47:26;;;;;;;;;;;;;;;13.27;75.84;98621.59;5051078;28;19939;-85
2023/07/11 01:49:53;;;;;;;;;;;;;;;13.24;76.02;98627.50;5051641;28;20054;-84
2023/07/11 01:52:20;;;;;;;;;;;;;;;13.24;76.25;98627.50;5056030;28;19931;-84
2023/07/11 01:54:47;;;;;;;;;;;;;;;13.20;76.19;98627.25;5052719;28;20019;-83
2023/07/11 01:57:16;;;;;;;;;;;;;;;13.18;76.46;98624.00;5049818;28;19924;-84
2023/07/11 01:59:43;;;;;;;;;;;;;;;13.19;76.64;98622.94;5049564;28;19966;-83
2023/07/11 02:02:10;;;;;;;;;;;;;;;13.20;76.81;98621.81;5051143;28;20417;-83
2023/07/11 02:04:37;;;;;;;;;;;;;;;13.24;76.88;98619.38;5050902;28;20344;-85
2023/07/11 02:07:04;;;;;;;;;;;;;;;13.27;76.69;98615.34;5050008;28;20059;-85
2023/07/11 02:09:31;;;;;;;;;;;;;;;13.23;76.44;98615.06;5050747;28;19946;-83
2023/07/11 02:11:58;;;;;;;;;;;;;;;13.24;76.61;98622.09;5051171;28;19924;-84
2023/07/11 02:14:25;;;;;;;;;;;;;;;13.25;76.41;98626.44;5049721;28;19956;-84
2023/07/11 02:16:52;;;;;;;;;;;;;;;13.23;76.29;98628.59;5051452;28;20482;-84
2023/07/11 02:19:21;;;;;;;;;;;;;;;13.23;76.16;98617.75;5062502;28;19925;-83
2023/07/11 02:21:48;;;;;;;;;;;;;;;13.23;76.02;98625.91;5064098;28;19951;-83
2023/07/11 02:24:16;;;;;;;;;;;;;;;13.23;76.01;98624.00;5051274;28;20809;-85
2023/07/11 02:26:43;;;;;;;;;;;;;;;13.23;75.89;98615.06;5050783;28;19924;-84
2023/07/11 02:29:10;;;;;;;;;;;;;;;13.21;75.91;98622.63;5042792;28;20420;-84
2023/07/11 02:31:37;;;;;;;;;;;;;;;13.15;75.78;98623.72;5030683;28;19940;-84
2023/07/11 02:34:04;;;;;;;;;;;;;;;13.04;76.25;98622.91;5030736;28;19929;-83
2023/07/11 02:36:31;;;;;;;;;;;;;;;12.97;76.62;98623.16;5029502;28;20019;-85
2023/07/11 02:38:58;;;;;;;;;;;;;;;12.96;76.97;98621.56;5037056;28;20295;-85
2023/07/11 02:41:26;;;;;;;;;;;;;;;12.84;77.28;98621.00;5049836;28;19924;-85
2023/07/11 02:43:53;;;;;;;;;;;;;;;12.73;77.94;98630.16;5053605;28;20027;-84
2023/07/11 02:46:20;;;;;;;;;;;;;;;12.73;78.43;98624.75;5054965;28;19933;-85
2023/07/11 02:48:47;;;;;;;;;;;;;;;12.79;78.38;98634.53;5054413;28;19924;-84
2023/07/11 02:51:14;;;;;;;;;;;;;;;12.85;78.44;98629.94;5054262;28;19929;-84
2023/07/11 02:53:40;;;;;;;;;;;;;;;12.92;78.22;98625.88;5036688;28;20367;-85
2023/07/11 02:56:07;;;;;;;;;;;;;;;12.86;78.42;98621.50;5053165;28;20028;-84
2023/07/11 02:58:37;;;;;;;;;;;;;;;12.92;78.59;98635.91;5054084;28;19931;-85
2023/07/11 03:01:04;;;;;;;;;;;;;;;12.93;78.54;98630.19;5054827;28;19986;-84
2023/07/11 03:03:31;;;;;;;;;;;;;;;12.95;78.73;98635.34;5054284;28;20391;-84
2023/07/11 03:05:58;;;;;;;;;;;;;;;12.99;78.54;98639.97;5054920;28;19928;-84
2023/07/11 03:08:25;;;;;;;;;;;;;;;12.89;78.69;98631.84;5054565;28;20470;-84
2023/07/11 03:10:56;;;;;;;;;;;;;;;12.78;79.22;98630.97;5054200;28;19932;-85
2023/07/11 03:13:23;;;;;;;;;;;;;;;12.72;79.96;98631.25;5054098;28;20311;-85
2023/07/11 03:15:49;;;;;;;;;;;;;;;12.71;80.83;98632.31;5033092;28;19979;-88
2023/07/11 03:18:16;;;;;;;;;;;;;;;12.75;80.94;98633.44;5051795;28;19924;-88
2023/07/11 03:20:43;;;;;;;;;;;;;;;12.77;81.23;98633.97;5055887;28;19925;-85
2023/07/11 03:23:11;;;;;;;;;;;;;;;12.75;81.46;98636.13;5054441;28;19925;-85
2023/07/11 03:25:38;;;;;;;;;;;;;;;12.79;81.53;98632.63;5053921;28;19967;-85
2023/07/11 03:28:05;;;;;;;;;;;;;;;12.80;81.88;98628.81;5054177;28;19924;-86
2023/07/11 03:30:35;;;;;;;;;;;;;;;12.77;81.95;98636.69;5034964;28;19925;-86
2023/07/11 03:33:02;;;;;;;;;;;;;;;12.73;82.59;98630.97;5034218;28;20301;-84
2023/07/11 03:35:30;;;;;;;;;;;;;;;12.74;83.03;98634.50;5033978;28;19924;-84
2023/07/11 03:37:57;;;;;;;;;;;;;;;12.76;83.16;98637.75;5054970;28;19974;-86
2023/07/11 03:40:24;;;;;;;;;;;;;;;12.71;83.47;98641.28;5053876;28;19967;-86
2023/07/11 03:42:51;;;;;;;;;;;;;;;12.69;83.74;98632.59;5053856;28;20368;-84
2023/07/11 03:45:18;;;;;;;;;;;;;;;12.62;83.96;98637.47;5052896;28;19935;-86
2023/07/11 03:47:44;;;;;;;;;;;;;;;12.48;84.08;98631.75;5053512;28;19932;-86
2023/07/11 03:50:12;;;;;;;;;;;;;;;12.34;84.74;98636.81;5051273;28;19967;-86
2023/07/11 03:52:39;;;;;;;;;;;;;;;12.46;85.24;98633.91;5053794;28;19929;-86
2023/07/11 03:55:08;;;;;;;;;;;;;;;12.61;85.27;98643.97;5052979;28;19931;-87
2023/07/11 03:57:36;;;;;;;;;;;;;;;12.73;85.19;98639.09;5053037;28;19931;-85
2023/07/11 04:00:03;;;;;;;;;;;;;;;12.85;85.04;98635.34;5051985;28;19924;-87
2023/07/11 04:02:38;;;;;;;;;;;;;;;12.88;84.89;98638.31;5033526;28;19932;-85
2023/07/11 04:05:05;;;;;;;;;;;;;;;12.94;84.89;98633.75;5033015;28;19924;-86
2023/07/11 04:07:32;;;;;;;;;;;;;;;12.99;84.69;98637.25;5033211;28;19925;-85
2023/07/11 04:09:59;;;;;;;;;;;;;;;13.02;84.45;98627.78;5033492;28;19925;-87
2023/07/11 04:12:26;;;;;;;;;;;;;;;12.98;84.48;98634.81;5032724;28;20498;-88
2023/07/11 04:14:53;;;;;;;;;;;;;;;12.95;83.96;98625.34;5032645;28;19924;-86
2023/07/11 04:17:19;;;;;;;;;;;;;;;12.88;84.01;98624.78;5033331;28;19925;-87
2023/07/11 04:19:46;;;;;;;;;;;;;;;12.98;83.95;98630.19;5032921;28;20028;-88
2023/07/11 04:22:13;;;;;;;;;;;;;;;13.13;84.09;98631.31;5032571;28;19935;-86
2023/07/11 04:24:40;;;;;;;;;;;;;;;13.18;83.47;98628.59;5038162;28;20342;-88
2023/07/11 04:27:07;;;;;;;;;;;;;;;13.07;82.64;98621.56;5040168;28;19925;-90
2023/07/11 04:29:34;;;;;;;;;;;;;;;13.03;82.14;98626.69;5029845;28;19929;-90
2023/07/11 04:32:00;;;;;;;;;;;;;;;13.09;81.77;98620.22;5039475;28;20015;-84
2023/07/11 04:34:27;;;;;;;;;;;;;;;13.00;80.70;98625.34;5049276;28;19925;-85
2023/07/11 04:36:54;;;;;;;;;;;;;;;13.07;80.45;98625.09;5046407;28;20482;-85
2023/07/11 04:39:21;;;;;;;;;;;;;;;13.10;80.07;98621.81;5046206;28;19925;-83
2023/07/11 04:41:48;;;;;;;;;;;;;;;13.12;79.93;98624.28;5035856;28;19967;-88
2023/07/11 04:44:15;;;;;;;;;;;;;;;13.17;79.85;98622.38;5036856;28;20295;-83
2023/07/11 04:46:42;;;;;;;;;;;;;;;13.16;79.04;98620.72;5039924;28;19932;-89
2023/07/11 04:49:10;;;;;;;;;;;;;;;13.07;78.60;98613.44;5016195;28;20456;-85
2023/07/11 04:51:37;;;;;;;;;;;;;;;13.12;78.73;98618.84;5039074;28;20280;-84
2023/07/11 04:54:04;;;;;;;;;;;;;;;13.18;78.66;98617.75;5042383;28;19925;-84
2023/07/11 04:56:31;;;;;;;;;;;;;;;13.18;78.01;98617.75;5044025;28;19929;-85
2023/07/11 04:58:59;;;;;;;;;;;;;;;13.26;77.99;98614.50;5041685;28;20023;-85
2023/07/11 05:01:25;;;;;;;;;;;;;;;13.36;77.64;98611.81;5045358;28;19925;-83
2023/07/11 05:03:52;;;;;;;;;;;;;;;13.40;76.91;98609.41;5043467;28;19924;-86
2023/07/11 05:06:19;;;;;;;;;;;;;;;13.44;76.50;98608.59;5049086;28;19939;-82
2023/07/11 05:08:46;;;;;;;;;;;;;;;13.57;76.30;98606.38;5045847;28;20410;-82
2023/07/11 05:11:17;;;;;;;;;;;;;;;13.62;76.25;98603.66;5043828;28;19928;-84
2023/07/11 05:13:45;;;;;;;;;;;;;;;13.65;75.68;98601.22;5044735;28;19978;-81
2023/07/11 05:16:19;;;;;;;;;;;;;;;13.61;75.21;98591.19;5044903;28;19951;-82
2023/07/11 05:18:47;;;;;;;;;;;;;;;13.65;75.09;98598.50;5038764;28;19970;-83
2023/07/11 05:21:15;;;;;;;;;;;;;;;13.67;74.61;98598.22;5031846;28;19948;-83
2023/07/11 05:23:43;;;;;;;;;;;;;;;13.70;74.51;98589.56;5031483;28;19956;-84
2023/07/11 05:26:10;;;;;;;;;;;;;;;13.86;73.86;98591.13;5032862;28;20427;-84
2023/07/11 05:28:37;;;;;;;;;;;;;;;13.90;72.77;98594.13;5034253;28;20019;-81
2023/07/11 05:31:05;;;;;;;;;;;;;;;14.02;72.62;98588.34;5040684;28;19925;-84
2023/07/11 05:33:32;;;;;;;;;;;;;;;14.18;72.25;98589.09;5040280;28;19925;-84
2023/07/11 05:39:04;;;;;;;;;;;;;;;14.26;71.35;98600.22;5039176;28;19929;-85
2023/07/11 05:41:32;;;;;;;;;;;;;;;14.27;70.84;98590.97;5047126;28;20394;-84
2023/07/11 05:43:59;;;;;;;;;;;;;;;14.31;70.74;98594.75;5038021;28;19933;-87
2023/07/11 05:46:27;;;;;;;;;;;;;;;14.20;70.33;98593.16;5037831;28;20050;-85
2023/07/11 05:48:55;;;;;;;;;;;;;;;14.09;70.29;98595.13;5041862;28;20404;-86
2023/07/11 05:51:22;;;;;;;;;;;;;;;14.18;70.47;98591.81;5040859;28;19987;-84
2023/07/11 05:53:49;;;;;;;;;;;;;;;14.39;69.93;98593.38;5034637;28;20063;-83
2023/07/11 05:56:17;;;;;;;;;;;;;;;14.48;69.43;98599.84;5040529;28;19960;-85
2023/07/11 05:58:44;;;;;;;;;;;;;;;14.46;69.13;98593.06;5040524;28;20395;-85
2023/07/11 06:01:11;;;;;;;;;;;;;;;14.42;69.26;98589.28;5040780;28;19928;-87
2023/07/11 06:03:45;;;;;;;;;;;;;;;14.45;69.31;98591.41;5042393;28;19928;-88
2023/07/11 06:06:16;;;;;;;;;;;;;;;14.53;69.36;98585.44;5039641;28;20015;-88
2023/07/11 06:08:43;;;;;;;;;;;;;;;14.40;68.60;98580.59;5042497;28;19929;-84
2023/07/11 06:11:09;;;;;;;;;;;;;;;14.29;69.31;98579.84;5037849;28;19925;-85
2023/07/11 06:13:37;;;;;;;;;;;;;;;14.39;69.40;98584.41;5040407;28;20387;-84
2023/07/11 06:16:05;;;;;;;;;;;;;;;14.48;69.26;98590.84;5048128;28;20383;-84
2023/07/11 06:18:33;;;;;;;;;;;;;;;14.54;68.86;98576.22;5044475;28;19948;-85
2023/07/11 06:21:00;;;;;;;;;;;;;;;14.48;68.65;98577.28;5040796;28;20031;-83
2023/07/11 06:23:27;;;;;;;;;;;;;;;14.48;68.55;98575.41;5041176;28;19925;-84
2023/07/11 06:25:54;;;;;;;;;;;;;;;14.42;68.21;98581.94;5040756;28;20513;-83
2023/07/11 06:28:20;;;;;;;;;;;;;;;14.57;68.52;98574.84;5041459;28;19925;-84
2023/07/11 06:30:47;;;;;;;;;;;;;;;14.78;68.35;98568.16;5041737;28;19979;-85
2023/07/11 06:33:17;;;;;;;;;;;;;;;14.81;67.08;98566.78;5036708;28;19951;-82
2023/07/11 06:35:48;;;;;;;;;;;;;;;15.00;66.89;98561.50;5035026;28;20271;-85
2023/07/11 06:38:15;;;;;;;;;;;;;;;15.45;66.19;98564.91;5040321;28;19991;-87
2023/07/11 06:40:51;;;;;;;;;;;;;;;15.81;64.71;98552.56;5042528;28;19924;-86
2023/07/11 06:43:18;;;;;;;;;;;;;;;15.58;64.89;98567.75;5039702;28;20020;-85
2023/07/11 06:45:48;;;;;;;;;;;;;;;15.52;64.83;98562.63;5049620;28;19925;-86
2023/07/11 06:48:16;;;;;;;;;;;;;;;15.42;65.35;98558.13;5050059;28;20571;-85
2023/07/11 06:50:48;;;;;;;;;;;;;;;15.32;65.42;98558.22;5047735;28;19924;-87
2023/07/11 06:53:15;;;;;;;;;;;;;;;15.23;65.70;98549.88;5031860;28;19925;-85
2023/07/11 06:55:46;;;;;;;;;;;;;;;15.15;66.10;98553.22;5039490;28;19924;-84
2023/07/11 06:58:13;;;;;;;;;;;;;;;15.05;66.39;98554.09;5021935;28;19925;-83
2023/07/11 07:00:40;;;;;;;;;;;;;;;14.93;66.79;98565.34;5041363;28;20431;-83
2023/07/11 07:03:13;;;;;;;;;;;;;;;14.91;67.06;98561.28;5041744;28;20303;-84
2023/07/11 07:05:52;;;;;;;;;;;;;;;15.27;66.67;98559.09;5041513;28;19929;-83
2023/07/11 07:08:20;;;;;;;;;;;;;;;15.50;65.94;98562.13;5030966;28;19929;-82
2023/07/11 07:10:47;;;;;;;;;;;;;;;15.54;64.70;98555.00;5030861;28;19975;-83
2023/07/11 07:13:14;;;;;;;;;;;;;;;15.22;64.92;98550.97;5046433;28;20391;-83
2023/07/11 07:15:41;;;;;;;;;;;;;;;15.15;65.52;98556.72;5030122;28;19924;-82
2023/07/11 07:18:14;;;;;;;;;;;;;;;15.11;65.69;98555.66;5028999;28;20303;-83
2023/07/11 07:20:42;;;;;;;;;;;;;;;14.97;65.81;98565.59;5029844;28;19931;-84
2023/07/11 07:23:22;;;;;;;;;;;;;;;14.68;66.25;98563.59;5031062;28;19929;-83
2023/07/11 07:25:50;;;;;;;;;;;;;;;14.48;67.05;98553.69;5033569;28;19929;-83
2023/07/11 07:28:17;;;;;;;;;;;;;;;14.55;67.37;98547.94;5033758;28;19925;-83
2023/07/11 07:30:45;;;;;;;;;;;;;;;14.80;67.01;98552.41;5053183;28;19925;-83
2023/07/11 07:33:11;;;;;;;;;;;;;;;14.88;66.92;98548.25;5053971;28;19964;-83
2023/07/11 07:35:39;;;;;;;;;;;;;;;14.77;66.99;98552.16;5053684;28;19925;-82
2023/07/11 07:38:06;;;;;;;;;;;;;;;14.84;67.09;98548.03;5052303;28;19925;-83
2023/07/11 07:40:34;;;;;;;;;;;;;;;15.06;66.84;98544.03;5053453;28;20386;-82
2023/07/11 07:43:00;;;;;;;;;;;;;;;15.17;66.16;98532.81;5053816;28;19932;-83
2023/07/11 07:45:27;;;;;;;;;;;;;;;15.17;65.85;98543.69;5050487;28;20023;-85
2023/07/11 07:47:54;;;;;;;;;;;;;;;15.50;65.77;98537.66;5037967;28;19924;-83
2023/07/11 07:50:21;;;;;;;;;;;;;;;15.65;64.60;98544.81;5039640;28;20062;-83
2023/07/11 07:52:48;;;;;;;;;;;;;;;15.48;64.55;98543.38;5052139;28;19931;-84
2023/07/11 07:55:15;;;;;;;;;;;;;;;15.30;65.26;98544.09;5043960;28;19924;-83
2023/07/11 07:57:50;;;;;;;;;;;;;;;15.61;65.06;98531.81;5038932;28;20452;-83
2023/07/11 08:00:18;;;;;;;;;;;;;;;15.65;64.58;98544.81;5040937;28;19929;-84
2023/07/11 08:02:53;;;;;;;;;;;;;;;15.73;64.30;98544.25;5039713;28;19929;-84
2023/07/11 08:05:20;;;;;;;;;;;;;;;15.84;63.87;98540.28;5043354;28;19932;-83
2023/07/11 08:07:47;;;;;;;;;;;;;;;15.93;62.94;98538.56;5037777;28;20296;-83
2023/07/11 08:10:15;;;;;;;;;;;;;;;16.40;62.22;98527.84;5043255;28;20027;-84
2023/07/11 08:12:42;;;;;;;;;;;;;;;16.61;59.95;98536.53;5046647;28;19948;-84
2023/07/11 08:15:10;;;;;;;;;;;;;;;16.68;60.50;98537.81;5044268;28;19929;-84
2023/07/11 08:17:38;;;;;;;;;;;;;;;16.39;59.66;98528.97;5040140;28;19925;-83
2023/07/11 08:20:07;;;;;;;;;;;;;;;16.63;60.32;98529.69;5049890;28;20390;-83
2023/07/11 08:22:37;;;;;;;;;;;;;;;17.17;59.71;98527.50;5025827;28;20302;-83
2023/07/11 08:25:04;;;;;;;;;;;;;;;17.48;58.63;98526.94;5033961;28;19971;-85
2023/07/11 08:27:31;;;;;;;;;;;;;;;17.26;58.65;98541.25;5040945;28;19925;-85
2023/07/11 08:29:58;;;;;;;;;;;;;;;16.93;58.95;98537.72;5042316;28;19931;-82
2023/07/11 08:32:28;;;;;;;;;;;;;;;16.32;59.62;98545.66;5036666;28;20080;-84
2023/07/11 08:34:55;;;;;;;;;;;;;;;16.11;60.49;98542.41;5032980;28;19925;-83
2023/07/11 08:37:23;;;;;;;;;;;;;;;15.86;61.45;98548.16;5034404;28;20012;-84
2023/07/11 08:39:52;;;;;;;;;;;;;;;15.96;61.60;98548.84;5002335;28;20437;-82
2023/07/11 08:42:23;;;;;;;;;;;;;;;15.98;61.64;98549.38;5031692;28;19933;-84
2023/07/11 08:44:58;;;;;;;;;;;;;;;15.95;61.92;98551.84;5032976;28;19925;-83
2023/07/11 08:47:33;;;;;;;;;;;;;;;15.95;62.22;98560.00;5032344;28;19928;-84
2023/07/11 08:50:00;;;;;;;;;;;;;;;15.80;62.31;98553.66;5032462;28;20379;-83
2023/07/11 08:52:27;;;;;;;;;;;;;;;15.60;63.11;98551.94;5031895;28;19968;-85
2023/07/11 08:54:56;;;;;;;;;;;;;;;15.53;63.69;98558.84;5030951;28;19925;-85
2023/07/11 08:57:25;;;;;;;;;;;;;;;15.49;63.90;98563.22;5031357;28;20020;-84
2023/07/11 09:00:02;;;;;;;;;;;;;;;15.41;64.36;98556.50;5044886;28;20579;-83
2023/07/11 09:02:36;;;;;;;;;;;;;;;15.62;64.47;98559.81;5034783;28;19931;-84
2023/07/11 09:05:03;;;;;;;;;;;;;;;16.03;63.60;98554.75;5050920;28;19956;-82
2023/07/11 09:07:33;;;;;;;;;;;;;;;16.62;62.37;98543.63;5050771;28;19935;-84
2023/07/11 09:10:00;;;;;;;;;;;;;;;17.23;61.23;98544.56;5052737;28;19929;-83
2023/07/11 09:12:50;;;;;;;;;;;;;;;17.95;59.61;98535.88;5054560;28;20302;-83
2023/07/11 09:15:20;;;;;;;;;;;;;;;18.20;58.07;98531.78;5050939;28;19982;-84
2023/07/11 09:17:52;;;;;;;;;;;;;;;18.04;58.20;98530.53;5052015;28;19962;-84
2023/07/11 09:20:22;;;;;;;;;;;;;;;17.74;58.17;98527.25;5050601;28;19931;-86
2023/07/11 09:22:55;;;;;;;;;;;;;;;17.04;59.03;98536.44;5052273;28;19931;-85
2023/07/11 09:25:25;;;;;;;;;;;;;;;16.49;60.70;98541.63;5036789;28;20027;-87
2023/07/11 09:27:54;;;;;;;;;;;;;;;16.01;62.19;98545.25;5021905;28;19924;-82
2023/07/11 09:30:27;;;;;;;;;;;;;;;15.59;63.73;98554.94;5046765;28;19984;-84
2023/07/11 09:32:54;;;;;;;;;;;;;;;15.48;64.46;98548.81;5045806;28;19925;-83
2023/07/11 09:35:21;;;;;;;;;;;;;;;15.53;64.63;98547.97;5042337;28;19955;-83
2023/07/11 09:37:48;;;;;;;;;;;;;;;15.80;64.43;98542.00;5030352;28;20421;-83
2023/07/11 09:40:18;;;;;;;;;;;;;;;16.05;63.61;98540.84;5030463;28;19935;-82
2023/07/11 09:42:49;;;;;;;;;;;;;;;16.45;62.89;98544.94;5030034;28;19925;-83
2023/07/11 09:45:17;;;;;;;;;;;;;;;16.87;61.18;98531.53;5036051;28;20299;-81
2023/07/11 09:47:47;;;;;;;;;;;;;;;16.97;59.94;98534.09;5041335;28;19925;-82
2023/07/11 09:50:21;;;;;;;;;;;;;;;17.54;58.33;98533.91;5032281;28;19932;-83
2023/07/11 09:53:08;;;;;;;;;;;;;;;18.59;55.82;98525.75;5043961;28;19940;-83
2023/07/11 09:55:36;;;;;;;;;;;;;;;19.02;54.80;98530.75;5041060;28;20310;-83
2023/07/11 09:58:03;;;;;;;;;;;;;;;18.82;53.92;98531.25;5034857;28;19925;-82
2023/07/11 10:00:32;;;;;;;;;;;;;;;18.45;54.78;98537.81;5050407;28;19979;-83
2023/07/11 10:02:59;;;;;;;;;;;;;;;18.61;53.87;98537.19;5051444;28;20388;-82
2023/07/11 10:05:27;;;;;;;;;;;;;;;18.14;55.02;98533.84;5044590;28;20367;-82
2023/07/11 10:07:58;;;;;;;;;;;;;;;18.08;55.65;98532.34;5036315;28;19925;-82
2023/07/11 10:10:25;;;;;;;;;;;;;;;18.46;55.12;98536.69;4686189;28;10000276;-81
2023/07/11 10:12:52;;;;;;;;;;;;;;;18.21;55.01;98535.34;5048169;28;19932;-83
2023/07/11 10:15:19;;;;;;;;;;;;;;;18.84;54.17;98534.50;5042166;28;20330;-83
2023/07/11 10:17:46;;;;;;;;;;;;;;;19.35;52.38;98530.47;5021906;28;20504;-82
2023/07/11 10:20:15;;;;;;;;;;;;;;;19.79;52.41;98534.22;5047671;28;19933;-82
2023/07/11 10:22:52;;;;;;;;;;;;;;;19.48;52.89;98537.78;5046877;28;20339;-83
2023/07/11 10:25:26;;;;;;;;;;;;;;;19.18;53.06;98544.84;5043232;28;19924;-83
2023/07/11 10:27:59;;;;;;;;;;;;;;;19.16;53.09;98541.59;5044436;28;19929;-84
2023/07/11 10:30:27;;;;;;;;;;;;;;;18.79;53.58;98529.94;5036127;28;19970;-83
2023/07/11 10:32:58;;;;;;;;;;;;;;;18.95;53.85;98545.97;5037792;28;19979;-83
2023/07/11 10:36:05;;;;;;;;;;;;;;;18.87;52.80;98547.53;5037063;28;19932;-82
2023/07/11 10:38:58;;;;;;;;;;;;;;;18.97;53.53;98550.03;5030939;28;19925;-85
2023/07/11 10:41:46;;;;;;;;;;;;;;;19.16;53.04;98551.75;5031389;28;20019;-84
2023/07/11 10:44:16;;;;;;;;;;;;;;;19.16;52.71;98540.81;5036510;28;19928;-84
2023/07/11 10:46:45;;;;;;;;;;;;;;;19.05;52.23;98545.72;5033860;28;20349;-84
2023/07/11 10:49:14;;;;;;;;;;;;;;;18.52;53.05;98551.88;5019071;28;19931;-84
2023/07/11 10:51:44;;;;;;;;;;;;;;;18.27;53.61;98548.56;5023504;28;19971;-83
2023/07/11 10:54:18;;;;;;;;;;;;;;;18.35;54.26;98541.59;5015236;28;20375;-84
2023/07/11 10:56:48;;;;;;;;;;;;;;;18.44;54.65;98555.34;5038817;28;20040;-84
2023/07/11 10:59:16;;;;;;;;;;;;;;;18.00;55.72;98551.34;5046747;28;19939;-83
2023/07/11 11:02:02;;;;;;;;;;;;;;;18.11;55.86;98550.84;5036539;28;19932;-84
2023/07/11 11:05:02;;;;;;;;;;;;;;;19.52;53.15;98548.88;5043980;28;19924;-83
2023/07/11 11:07:29;;;;;;;;;;;;;;;20.40;50.42;98558.22;5047930;28;19977;-84
2023/07/11 11:10:04;;;;;;;;;;;;;;;20.40;50.21;98550.00;5052260;28;19973;-84
2023/07/11 11:12:31;;;;;;;;;;;;;;;20.32;49.76;98548.88;5047169;28;20375;-85
2023/07/11 11:15:13;;;;;;;;;;;;;;;20.19;50.41;98553.38;5046048;28;19984;-82
2023/07/11 11:17:44;;;;;;;;;;;;;;;20.13;50.58;98546.44;5045118;28;19931;-85
2023/07/11 11:20:13;;;;;;;;;;;;;;;20.40;49.33;98547.28;5037152;28;19937;-85
2023/07/11 11:22:59;;;;;;;;;;;;;;;20.21;49.89;98551.13;5035600;28;19932;-84
2023/07/11 11:25:27;;;;;;;;;;;;;;;20.03;50.18;98549.47;5052576;28;19955;-83
2023/07/11 11:27:59;;;;;;;;;;;;;;;19.96;50.11;98547.19;5050219;28;19936;-85
2023/07/11 11:30:45;;;;;;;;;;;;;;;19.78;50.69;98540.03;5049468;28;19924;-85
2023/07/11 11:33:22;;;;;;;;;;;;;;;19.76;51.11;98554.03;5048941;28;20015;-85
2023/07/11 11:36:11;;;;;;;;;;;;;;;19.53;51.39;98549.72;5033994;28;19924;-84
2023/07/11 11:39:07;;;;;;;;;;;;;;;18.99;51.80;98553.25;5031351;28;19975;-86
2023/07/11 11:41:39;;;;;;;;;;;;;;;18.09;53.44;98552.25;5004090;28;19926;-86
2023/07/11 11:44:10;;;;;;;;;;;;;;;18.00;54.70;98548.59;5010194;28;20032;-84
2023/07/11 11:46:40;;;;;;;;;;;;;;;18.09;54.65;98547.59;5015367;28;19924;-84
2023/07/11 11:49:17;;;;;;;;;;;;;;;18.29;55.19;98548.28;5029782;28;20324;-85
2023/07/11 11:52:05;;;;;;;;;;;;;;;18.37;53.64;98542.09;5017090;28;19976;-85
2023/07/11 11:54:38;;;;;;;;;;;;;;;18.49;53.39;98539.63;4998860;28;20023;-85
2023/07/11 11:57:05;;;;;;;;;;;;;;;18.65;52.54;98537.34;4995256;28;19925;-86
2023/07/11 11:59:32;;;;;;;;;;;;;;;19.16;51.73;98533.41;5007114;28;20429;-85
2023/07/11 12:02:04;;;;;;;;;;;;;;;21.20;47.70;98529.38;5025691;28;19936;-83
2023/07/11 12:04:32;;;;;;;;;;;;;;;23.10;43.85;98530.59;5010323;28;20032;-84
2023/07/11 12:07:02;;;;;;;;;;;;;;;24.30;42.63;98523.94;4988976;28;19925;-84
2023/07/11 12:09:44;;;;;;;;;;;;;;;23.71;42.49;98536.22;5023153;28;19924;-84
2023/07/11 12:12:12;;;;;;;;;;;;;;;22.88;43.28;98538.03;5007239;28;19931;-82
2023/07/11 12:14:54;;;;;;;;;;;;;;;22.48;43.33;98541.28;5005308;28;19925;-84
2023/07/11 12:17:33;;;;;;;;;;;;;;;21.37;43.82;98534.00;5027307;28;19929;-84
2023/07/11 12:20:01;;;;;;;;;;;;;;;20.31;44.58;98537.13;5056252;28;19960;-83
2023/07/11 12:22:38;;;;;;;;;;;;;;;20.75;45.64;98529.75;5033848;28;19944;-83
2023/07/11 12:25:05;;;;;;;;;;;;;;;21.28;44.03;98527.72;5044591;28;19967;-85
2023/07/11 12:27:32;;;;;;;;;;;;;;;21.55;43.03;98523.00;5035038;28;19925;-85
2023/07/11 12:30:00;;;;;;;;;;;;;;;21.95;42.42;98525.41;5038032;28;20403;-84
2023/07/11 12:32:30;;;;;;;;;;;;;;;22.26;41.62;98531.41;5032149;28;19957;-84
2023/07/11 12:34:58;;;;;;;;;;;;;;;21.83;41.35;98531.63;5032222;28;20019;-85
2023/07/11 12:37:25;;;;;;;;;;;;;;;21.76;42.01;98528.56;5030877;28;20400;-83
2023/07/11 12:40:09;;;;;;;;;;;;;;;21.92;42.03;98523.31;4684791;28;10000635;-83
2023/07/11 12:42:55;;;;;;;;;;;;;;;21.25;43.06;98530.34;5052003;28;19959;-84
2023/07/11 12:45:23;;;;;;;;;;;;;;;20.49;43.33;98526.97;5032350;28;20452;-83
2023/07/11 12:48:11;;;;;;;;;;;;;;;19.88;44.69;98540.56;5045489;28;19924;-84
2023/07/11 12:50:43;;;;;;;;;;;;;;;19.50;45.60;98540.22;5043558;28;19935;-84
2023/07/11 12:53:10;;;;;;;;;;;;;;;19.41;46.19;98542.09;5046766;28;19931;-85
2023/07/11 12:55:37;;;;;;;;;;;;;;;19.19;46.83;98551.13;5048459;28;19924;-83
2023/07/11 12:58:04;;;;;;;;;;;;;;;18.80;46.38;98544.41;5045305;28;21122;-84
2023/07/11 13:00:31;;;;;;;;;;;;;;;18.45;46.92;98548.75;5024461;28;19924;-85